Time;durP1;ratioP1;P1;durP2;ratioP2;P2;SDS_P1;SDS_P2;PMS_P1;PMS_P2;Temp;Humidity;BMP_temperature;BMP_pressure;BME280_temperature;BME280_humidity;BME280_pressure;Samples;Min_cycle;Max_cycle;Signal;HPM_P1;HPM_P2
2022/09/04 00:00:37;;;;;;;12.23;9.57;;;;;;;-141.28;100.00;48687.75;5090092;28;20235;-75
2022/09/04 00:03:27;;;;;;;13.70;9.30;;;;;;;-141.28;100.00;48709.34;5095978;28;20191;-77
2022/09/04 00:05:56;;;;;;;13.97;9.80;;;;;;;-141.28;100.00;48658.34;5097118;28;20199;-74
2022/09/04 00:08:44;;;;;;;17.90;9.87;;;;;;;-141.28;100.00;48617.13;5097105;28;20248;-76
2022/09/04 00:11:25;;;;;;;14.47;10.17;;;;;;;-141.28;100.00;48630.88;5087284;28;20203;-76
2022/09/04 00:13:57;;;;;;;13.47;9.97;;;;;;;-141.28;100.00;48615.19;5075293;28;20205;-75
2022/09/04 00:16:29;;;;;;;11.20;9.23;;;;;;;-141.28;100.00;48589.66;5083948;28;20257;-75
2022/09/04 00:19:07;;;;;;;11.13;9.40;;;;;;;-141.28;100.00;48587.72;5093851;28;20669;-75
2022/09/04 00:21:42;;;;;;;17.43;10.43;;;;;;;-141.28;100.00;48579.88;5093030;28;20191;-75
2022/09/04 00:24:14;;;;;;;13.97;9.73;;;;;;;-141.28;100.00;48568.09;5107474;28;20199;-74
2022/09/04 00:26:51;;;;;;;11.10;9.93;;;;;;;-141.28;100.00;48575.94;5113860;28;20227;-76
2022/09/04 00:29:25;;;;;;;13.80;10.43;;;;;;;-141.28;100.00;48575.94;5096843;28;20192;-76
2022/09/04 00:31:59;;;;;;;11.33;9.23;;;;;;;-141.28;100.00;48560.25;5089016;28;20231;-75
2022/09/04 00:34:43;;;;;;;12.33;10.83;;;;;;;-141.28;100.00;48570.06;5106548;28;20620;-75
2022/09/04 00:37:15;;;;;;;14.27;11.03;;;;;;;-141.28;100.00;48515.13;5102058;28;20199;-75
2022/09/04 00:39:48;;;;;;;12.57;10.17;;;;;;;-141.28;100.00;48485.69;5109413;28;20211;-76
2022/09/04 00:42:32;;;;;;;13.93;10.90;;;;;;;-141.28;100.00;48497.47;5113898;28;20202;-75
2022/09/04 00:45:12;;;;;;;20.33;11.40;;;;;;;-141.28;100.00;48505.31;5093511;28;20199;-76
2022/09/04 00:48:03;;;;;;;14.07;11.20;;;;;;;-141.28;100.00;48507.28;5104027;28;20207;-76
2022/09/04 00:51:10;;;;;;;16.60;10.17;;;;;;;-141.28;100.00;48495.50;5087854;28;20256;-75
2022/09/04 00:53:55;;;;;;;18.03;11.20;;;;;;;-141.28;100.00;48526.91;5058171;28;20306;-76
2022/09/04 00:56:57;;;;;;;20.53;11.50;;;;;;;-141.28;100.00;48481.78;5073199;28;20207;-74
2022/09/04 00:59:39;;;;;;;16.50;11.23;;;;;;;-141.28;100.00;48485.69;5089415;28;20218;-75
2022/09/04 01:02:13;;;;;;;14.37;10.27;;;;;;;-141.28;100.00;48430.78;5093193;28;20294;-77
2022/09/04 01:04:43;;;;;;;14.77;10.63;;;;;;;-141.28;100.00;48403.31;5089776;28;20278;-75
2022/09/04 01:07:26;;;;;;;12.47;9.97;;;;;;;-141.28;100.00;48405.28;5093269;28;20203;-75
2022/09/04 01:10:22;;;;;;;15.53;9.73;;;;;;;-141.28;100.00;48458.22;5093147;28;20195;-76
2022/09/04 01:12:57;;;;;;;16.37;9.70;;;;;;;-141.28;100.00;48407.22;5085886;28;20218;-74
2022/09/04 01:15:34;;;;;;;16.53;10.40;;;;;;;-141.28;100.00;48411.16;5111172;28;20194;-76
2022/09/04 01:18:09;;;;;;;12.67;10.30;;;;;;;-141.28;100.00;48411.16;5092496;28;20196;-76
2022/09/04 01:20:53;;;;;;;13.53;10.43;;;;;;;-141.28;100.00;48417.03;5098328;28;20252;-74
2022/09/04 01:23:52;;;;;;;15.27;10.60;;;;;;;-141.28;100.00;48438.63;5087408;28;20297;-76
2022/09/04 01:26:25;;;;;;;18.03;11.47;;;;;;;-141.28;100.00;48428.81;5074166;28;20675;-76
2022/09/04 01:29:01;;;;;;;16.10;11.23;;;;;;;-141.28;100.00;48399.38;5085501;28;20210;-76
2022/09/04 01:31:37;;;;;;;15.30;11.00;;;;;;;-141.28;100.00;48395.47;5073494;28;20199;-75
2022/09/04 01:34:19;;;;;;;17.40;10.63;;;;;;;-141.28;100.00;48387.63;5072441;28;20235;-75
2022/09/04 01:36:53;;;;;;;12.70;10.20;;;;;;;-141.28;100.00;48407.22;5072436;28;20196;-77
2022/09/04 01:39:24;;;;;;;17.83;10.33;;;;;;;-141.28;100.00;48391.53;5074590;28;20208;-74
2022/09/04 01:42:03;;;;;;;13.13;10.10;;;;;;;-141.28;100.00;48407.22;5092205;28;20214;-74
2022/09/04 01:44:32;;;;;;;14.13;10.07;;;;;;;-141.28;100.00;48383.69;5075898;28;20219;-76
2022/09/04 01:47:11;;;;;;;12.97;9.83;;;;;;;-141.28;100.00;48391.53;5072466;28;20203;-76
2022/09/04 01:49:42;;;;;;;13.83;10.03;;;;;;;-141.28;100.00;48403.31;5072416;28;20275;-75
2022/09/04 01:52:21;;;;;;;18.57;10.57;;;;;;;-141.28;100.00;48399.38;5071974;28;20200;-75
2022/09/04 01:54:55;;;;;;;14.90;9.37;;;;;;;-141.28;100.00;48407.22;5073900;28;20203;-77
2022/09/04 01:57:46;;;;;;;12.97;8.60;;;;;;;-141.28;100.00;48438.63;5071966;28;20572;-75
2022/09/04 02:00:15;;;;;;;11.73;8.33;;;;;;;-141.28;100.00;48415.06;5079204;28;20230;-76
2022/09/04 02:02:54;;;;;;;10.63;7.70;;;;;;;-141.28;100.00;48411.16;5079216;28;20659;-74
2022/09/04 02:05:30;;;;;;;11.70;7.23;;;;;;;-141.28;100.00;48415.06;5079397;28;20666;-76
2022/09/04 02:08:08;;;;;;;8.77;7.17;;;;;;;-141.28;100.00;48452.34;5089665;28;20199;-76
2022/09/04 02:10:41;;;;;;;10.30;7.00;;;;;;;-141.28;100.00;48460.19;5083028;28;20214;-76
2022/09/04 02:13:19;;;;;;;9.57;6.47;;;;;;;-141.28;100.00;48489.63;5073611;28;20690;-74
2022/09/04 02:15:57;;;;;;;7.87;6.70;;;;;;;-141.28;100.00;48517.09;5084764;28;20261;-75
2022/09/04 02:18:34;;;;;;;9.93;6.80;;;;;;;-141.28;100.00;48528.84;5080296;28;20195;-75
2022/09/04 02:21:07;;;;;;;8.83;6.93;;;;;;;-141.28;100.00;48536.69;5088572;28;20192;-78
2022/09/04 02:23:40;;;;;;;13.13;7.77;;;;;;;-141.28;100.00;48517.09;5071472;28;20585;-75
2022/09/04 02:26:14;;;;;;;8.27;7.20;;;;;;;-141.28;100.00;48524.94;5085504;28;20546;-75
2022/09/04 02:28:55;;;;;;;12.27;7.13;;;;;;;-141.28;100.00;48532.78;5071926;28;20196;-76
2022/09/04 02:31:30;;;;;;;10.97;7.10;;;;;;;-141.28;100.00;48544.56;5077731;28;20202;-77
2022/09/04 02:34:06;;;;;;;13.57;6.80;;;;;;;-141.28;100.00;48536.69;5091657;28;20597;-75
2022/09/04 02:36:43;;;;;;;9.33;7.20;;;;;;;-141.28;100.00;48552.41;5097663;28;20566;-74
2022/09/04 02:39:27;;;;;;;10.73;7.57;;;;;;;-141.28;100.00;48546.50;5082628;28;20705;-76
2022/09/04 02:42:04;;;;;;;12.90;7.70;;;;;;;-141.28;100.00;48568.09;5114334;28;20222;-76
2022/09/04 02:44:53;;;;;;;18.90;8.73;;;;;;;-141.28;100.00;48579.88;5112855;28;20194;-76
2022/09/04 02:47:25;;;;;;;19.87;9.60;;;;;;;-141.28;100.00;48556.31;5095348;28;20546;-75
2022/09/04 02:50:03;;;;;;;14.30;9.90;;;;;;;-141.28;100.00;48532.78;5098534;28;20199;-74
2022/09/04 02:52:48;;;;;;;19.27;10.73;;;;;;;-141.28;100.00;48536.69;5098762;28;20654;-76
2022/09/04 02:55:29;;;;;;;21.70;11.93;;;;;;;-141.28;100.00;48501.41;5094248;28;20565;-75
2022/09/04 02:58:10;;;;;;;17.10;10.27;;;;;;;-141.28;100.00;48481.78;5112735;28;20198;-74
2022/09/04 03:00:46;;;;;;;18.40;10.80;;;;;;;-141.28;100.00;48473.94;5113300;28;20317;-75
2022/09/04 03:03:18;;;;;;;13.17;9.23;;;;;;;-141.28;100.00;48442.53;5114778;28;20209;-76
2022/09/04 03:05:52;;;;;;;37.47;9.93;;;;;;;-141.28;100.00;48438.63;5109384;28;20379;-75
2022/09/04 03:08:25;;;;;;;34.10;10.17;;;;;;;-141.28;100.00;48434.69;5104948;28;20194;-74
2022/09/04 03:10:58;;;;;;;23.17;9.43;;;;;;;-141.28;100.00;48434.69;5095597;28;20200;-77
2022/09/04 03:13:30;;;;;;;58.77;10.43;;;;;;;-141.28;100.00;48399.38;5107159;28;20704;-76
2022/09/04 03:16:03;;;;;;;22.37;10.60;;;;;;;-141.28;100.00;48436.66;5095432;28;20200;-76
2022/09/04 03:18:35;;;;;;;45.03;11.47;;;;;;;-141.28;100.00;48430.78;5090051;28;20565;-76
2022/09/04 03:21:08;;;;;;;24.23;10.00;;;;;;;-141.28;100.00;48422.94;5100275;28;20230;-75
2022/09/04 03:23:45;;;;;;;58.70;10.93;;;;;;;-141.28;100.00;48430.78;5094795;28;20267;-75
2022/09/04 03:26:18;;;;;;;21.47;11.20;;;;;;;-141.28;100.00;48399.38;5098737;28;20199;-75
2022/09/04 03:28:54;;;;;;;20.60;11.93;;;;;;;-141.28;100.00;48387.63;5114985;28;20272;-76
2022/09/04 03:31:31;;;;;;;55.80;12.43;;;;;;;-141.28;100.00;48368.00;5089890;28;20664;-77
2022/09/04 03:34:08;;;;;;;76.03;11.10;;;;;;;-141.28;100.00;48350.34;5112085;28;20214;-75
2022/09/04 03:36:48;;;;;;;58.23;12.17;;;;;;;-141.28;100.00;48350.34;5094929;28;20547;-75
2022/09/04 03:39:26;;;;;;;68.93;12.93;;;;;;;-141.28;100.00;48322.88;5076705;28;20195;-74
2022/09/04 03:42:04;;;;;;;62.83;15.87;;;;;;;-141.28;100.00;48301.31;5079313;28;20299;-75
2022/09/04 03:44:44;;;;;;;23.80;12.73;;;;;;;-141.28;100.00;48273.84;5075429;28;20196;-75
2022/09/04 03:47:23;;;;;;;84.00;14.53;;;;;;;-141.28;100.00;48213.03;5079831;28;20206;-74
2022/09/04 03:50:02;;;;;;;78.03;13.10;;;;;;;-141.28;100.00;48207.16;5094939;28;20634;-74
2022/09/04 03:52:37;;;;;;;27.90;12.87;;;;;;;-141.28;100.00;48232.66;5087062;28;20208;-74
2022/09/04 03:55:35;;;;;;;24.17;12.30;;;;;;;-141.28;100.00;48236.56;5089262;28;20201;-76
2022/09/04 03:58:10;;;;;;;23.57;13.30;;;;;;;-141.28;100.00;48211.06;5075156;28;20212;-77
2022/09/04 04:00:46;;;;;;;35.07;12.97;;;;;;;-141.28;100.00;48199.31;5074654;28;20235;-75
2022/09/04 04:03:37;;;;;;;43.13;13.23;;;;;;;-141.28;100.00;48191.44;5087287;28;20204;-75
2022/09/04 04:06:18;;;;;;;31.10;12.23;;;;;;;-141.28;100.00;48199.31;5071253;28;20279;-76
2022/09/04 04:09:13;;;;;;;21.77;12.53;;;;;;;-141.28;100.00;48187.53;5074092;28;20192;-75
2022/09/04 04:11:58;;;;;;;34.83;12.93;;;;;;;-141.28;100.00;48183.59;5079781;28;20195;-76
2022/09/04 04:14:42;;;;;;;28.27;13.03;;;;;;;-141.28;100.00;48173.81;5094253;28;20245;-77
2022/09/04 04:17:23;;;;;;;22.40;13.00;;;;;;;-141.28;100.00;48156.16;5091677;28;20203;-75
2022/09/04 04:20:07;;;;;;;23.00;12.43;;;;;;;-141.28;100.00;48152.22;5085321;28;20199;-74
2022/09/04 04:22:59;;;;;;;18.13;12.57;;;;;;;-141.28;100.00;48140.47;5074015;28;20275;-75
2022/09/04 04:25:50;;;;;;;19.23;13.03;;;;;;;-141.28;100.00;48132.59;5107048;28;20194;-75
2022/09/04 04:28:29;;;;;;;19.23;12.83;;;;;;;-141.28;100.00;48122.81;5090801;28;20211;-75
2022/09/04 04:31:09;;;;;;;17.67;12.57;;;;;;;-141.28;100.00;48111.03;5082161;28;20203;-77
2022/09/04 04:33:50;;;;;;;16.13;11.20;;;;;;;-141.28;100.00;48101.22;5106817;28;20222;-76
2022/09/04 04:36:29;;;;;;;14.87;11.20;;;;;;;-141.28;100.00;48097.31;5081993;28;20199;-75
2022/09/04 04:39:10;;;;;;;17.37;11.50;;;;;;;-141.28;100.00;48087.50;5089534;28;20211;-75
2022/09/04 04:42:05;;;;;;;17.80;12.60;;;;;;;-141.28;100.00;48089.47;5098301;28;20222;-74
2022/09/04 04:48:46;;;;;;;17.27;11.27;;;;;;;-141.28;100.00;48185.56;5050760;28;20204;-77
2022/09/04 04:51:31;;;;;;;22.50;12.63;;;;;;;-141.28;100.00;48128.69;5046396;28;20200;-75
2022/09/04 04:54:12;;;;;;;23.57;12.90;;;;;;;-141.28;100.00;48097.31;5075442;28;20227;-76
2022/09/04 04:56:49;;;;;;;26.07;13.77;;;;;;;-141.28;100.00;48087.50;5085687;28;20195;-74
2022/09/04 04:59:23;;;;;;;21.17;13.53;;;;;;;-141.28;100.00;48089.47;5085995;28;20228;-74
2022/09/04 05:02:03;;;;;;;25.97;13.40;;;;;;;-141.28;100.00;48073.75;5101199;28;20202;-75
2022/09/04 05:04:40;;;;;;;22.53;13.53;;;;;;;-141.28;100.00;48105.16;5095246;28;20647;-75
2022/09/04 05:07:22;;;;;;;28.97;13.77;;;;;;;-141.28;100.00;48097.31;5113645;28;20581;-75
2022/09/04 05:09:56;;;;;;;20.73;13.90;;;;;;;-141.28;100.00;48091.41;5103427;28;20565;-76
2022/09/04 05:12:35;;;;;;;24.47;13.73;;;;;;;-141.28;100.00;48103.19;5081457;28;20199;-75
2022/09/04 05:15:11;;;;;;;19.67;13.80;;;;;;;-141.28;100.00;48113.00;5092057;28;20223;-77
2022/09/04 05:17:45;;;;;;;17.67;12.50;;;;;;;-141.28;100.00;48124.75;5072447;28;20204;-74
2022/09/04 05:20:29;;;;;;;22.77;12.70;;;;;;;-141.28;100.00;48160.06;5076408;28;20542;-76
2022/09/04 05:23:18;;;;;;;22.80;13.77;;;;;;;-141.28;100.00;48175.75;5079820;28;20203;-75
2022/09/04 05:25:53;;;;;;;20.37;13.60;;;;;;;-141.28;100.00;48160.06;5072787;28;20196;-77
2022/09/04 05:28:32;;;;;;;20.90;13.40;;;;;;;-141.28;100.00;48158.09;5091865;28;20215;-75
2022/09/04 05:31:11;;;;;;;19.20;13.50;;;;;;;-141.28;100.00;48183.59;5075869;28;20571;-75
2022/09/04 05:33:51;;;;;;;20.00;12.97;;;;;;;-141.28;100.00;48195.38;5086118;28;20215;-75
2022/09/04 05:36:26;;;;;;;25.37;14.17;;;;;;;-141.28;100.00;48213.03;5084354;28;20200;-76
2022/09/04 05:39:06;;;;;;;20.47;13.30;;;;;;;-141.28;100.00;48226.75;5085537;28;20208;-76
2022/09/04 05:41:44;;;;;;;24.17;13.10;;;;;;;-141.28;100.00;48248.34;5095480;28;20297;-74
2022/09/04 05:44:22;;;;;;;22.70;13.77;;;;;;;-141.28;100.00;48289.53;5098176;28;20226;-76
2022/09/04 05:47:03;;;;;;;18.77;12.77;;;;;;;-141.28;100.00;48336.63;5096260;28;20214;-75
2022/09/04 05:49:47;;;;;;;21.43;12.83;;;;;;;-141.28;100.00;48375.84;5092760;28;20242;-75
2022/09/04 05:52:35;;;;;;;21.70;13.00;;;;;;;-141.28;100.00;48473.94;5092339;28;20203;-75
2022/09/04 05:55:24;;;;;;;19.13;13.10;;;;;;;-141.28;100.00;48556.31;5080696;28;20223;-76
2022/09/04 05:58:24;;;;;;;18.90;11.13;;;;;;;-141.28;100.00;48646.56;5092176;28;20199;-77
2022/09/04 06:01:01;;;;;;;17.73;11.83;;;;;;;-141.28;100.00;48719.16;5104950;28;20226;-76
2022/09/04 06:03:49;;;;;;;15.77;12.50;;;;;;;-141.28;100.00;48736.81;5091710;28;20570;-75
2022/09/04 06:06:22;;;;;;;17.10;12.67;;;;;;;-141.28;100.00;48774.09;5080420;28;20199;-75
2022/09/04 06:09:32;;;;;;;23.60;14.53;;;;;;;-141.28;100.00;48821.16;5107212;28;20212;-76
2022/09/04 06:12:13;;;;;;;16.17;11.53;;;;;;;-141.28;100.00;48795.66;5009333;28;20633;-75
2022/09/04 06:15:03;;;;;;;18.23;11.90;;;;;;;-141.28;100.00;48817.25;5105194;28;20227;-75
2022/09/04 06:17:46;;;;;;;15.67;11.77;;;;;;;-141.28;100.00;48817.25;5111458;28;20274;-76
2022/09/04 06:20:39;;;;;;;15.47;11.90;;;;;;;-141.28;100.00;48836.88;5111359;28;20206;-76
2022/09/04 06:23:25;;;;;;;16.63;11.93;;;;;;;-141.28;100.00;48905.53;5094712;28;20203;-75
2022/09/04 06:26:23;;;;;;;15.70;10.87;;;;;;;-141.28;100.00;48940.84;5079169;28;20199;-75
2022/09/04 06:29:12;;;;;;;17.33;12.57;;;;;;;-141.28;100.00;48891.78;5066343;28;20700;-76
2022/09/04 06:32:03;;;;;;;17.57;13.47;;;;;;;-141.28;100.00;48827.06;5101870;28;20206;-76
2022/09/04 06:34:46;;;;;;;18.20;12.30;;;;;;;-141.28;100.00;48779.97;5111674;28;20225;-75
2022/09/04 06:37:21;;;;;;;15.50;12.43;;;;;;;-141.28;100.00;48715.22;5081799;28;20695;-75
2022/09/04 06:40:02;;;;;;;20.57;12.63;;;;;;;-141.28;100.00;48709.34;5091206;28;20191;-74
2022/09/04 06:42:47;;;;;;;15.90;13.03;;;;;;;-141.28;100.00;48717.19;5091128;28;20658;-75
2022/09/04 06:45:47;;;;;;;16.00;13.03;;;;;;;-141.28;100.00;48787.81;5085467;28;20662;-75
2022/09/04 06:48:23;;;;;;;17.07;12.03;;;;;;;-141.28;100.00;48725.03;5098014;28;20202;-76
2022/09/04 06:51:04;;;;;;;16.07;12.33;;;;;;;-141.28;100.00;48674.03;5071113;28;20198;-77
2022/09/04 06:53:41;;;;;;;16.23;12.47;;;;;;;-141.28;100.00;48676.00;5098540;28;20638;-78
2022/09/04 06:56:32;;;;;;;16.13;12.67;;;;;;;-141.28;100.00;48677.94;5083039;28;20202;-74
2022/09/04 06:59:23;;;;;;;15.97;12.80;;;;;;;-141.28;100.00;48772.13;5083222;28;20200;-73
2022/09/04 07:02:09;;;;;;;21.03;13.83;;;;;;;-141.28;100.00;48823.13;5089821;28;20202;-74
2022/09/04 07:04:51;;;;;;;21.47;14.83;;;;;;;-141.28;100.00;48834.91;5091948;28;20207;-75
2022/09/04 07:07:29;;;;;;;17.43;14.03;;;;;;;-141.28;100.00;48830.97;5091509;28;20565;-76
2022/09/04 07:10:00;;;;;;;18.73;13.13;;;;;;;-141.28;100.00;48803.50;5096727;28;20209;-75
2022/09/04 07:12:41;;;;;;;20.63;13.87;;;;;;;-141.28;100.00;48795.66;5069130;28;20724;-74
2022/09/04 07:15:44;;;;;;;23.30;16.87;;;;;;;-141.28;100.00;48911.41;5075072;28;20227;-74
2022/09/04 07:18:36;;;;;;;25.10;16.77;;;;;;;-141.28;100.00;48905.53;5069175;28;20207;-75
2022/09/04 07:21:14;;;;;;;32.77;22.37;;;;;;;-141.28;100.00;48870.22;5091137;28;20207;-76
2022/09/04 07:23:50;;;;;;;35.10;21.77;;;;;;;-141.28;100.00;48834.91;5102459;28;20195;-74
2022/09/04 07:26:25;;;;;;;30.77;19.77;;;;;;;-141.28;100.00;48866.28;5086450;28;20902;-75
2022/09/04 07:29:14;;;;;;;34.30;20.97;;;;;;;-141.28;100.00;48968.31;5088235;28;20195;-73
2022/09/04 07:32:01;;;;;;;29.07;19.50;;;;;;;-141.28;100.00;49082.13;5097534;28;20196;-76
2022/09/04 07:34:39;;;;;;;28.90;18.50;;;;;;;-141.28;100.00;49062.50;5088400;28;20288;-76
2022/09/04 07:37:26;;;;;;;24.77;16.90;;;;;;;-141.28;100.00;49172.38;5074924;28;20553;-75
2022/09/04 07:40:03;;;;;;;24.83;17.23;;;;;;;-141.28;100.00;49282.25;5093558;28;20278;-75
2022/09/04 07:42:36;;;;;;;24.07;16.83;;;;;;;-141.28;100.00;49437.25;5094355;28;20195;-75
2022/09/04 07:45:07;;;;;;;23.97;16.73;;;;;;;-141.28;100.00;49637.41;5105223;28;20204;-76
2022/09/04 07:47:41;;;;;;;23.00;15.90;;;;;;;-141.28;100.00;49829.75;5108928;28;20208;-76
2022/09/04 07:50:16;;;;;;;22.67;16.20;;;;;;;-141.28;100.00;50090.75;5113330;28;20202;-74
2022/09/04 07:52:58;;;;;;;19.20;15.17;;;;;;;-141.28;100.00;50355.72;5093339;28;20188;-75
2022/09/04 07:55:37;;;;;;;21.00;15.27;;;;;;;-141.28;100.00;50644.28;5074495;28;20223;-74
2022/09/04 07:58:43;;;;;;;22.10;14.40;;;;;;;-141.28;100.00;50836.66;5074353;28;20196;-74
2022/09/04 08:01:45;;;;;;;21.07;15.27;;;;;;;-141.28;100.00;51142.91;5079595;28;20581;-74
2022/09/04 08:04:44;;;;;;;19.70;14.67;;;;;;;-141.28;100.00;51288.19;5080296;28;20241;-76
2022/09/04 08:07:20;;;;;;;19.13;14.50;;;;;;;-141.28;100.00;51331.38;5087357;28;20206;-75
2022/09/04 08:10:12;;;;;;;20.30;15.10;;;;;;;-141.28;100.00;51378.50;5082288;28;20203;-75
2022/09/04 08:13:03;;;;;;;24.07;14.60;;;;;;;-141.28;100.00;51437.41;5082831;28;20187;-76
2022/09/04 08:15:41;;;;;;;20.17;14.03;;;;;;;-141.28;100.00;51382.44;5090643;28;20225;-74
2022/09/04 08:18:24;;;;;;;17.43;13.13;;;;;;;-141.28;100.00;51374.56;5105914;28;20198;-76
2022/09/04 08:21:10;;;;;;;20.30;13.30;;;;;;;-141.28;100.00;51178.25;5113300;28;20197;-76
2022/09/04 08:24:08;;;;;;;16.57;11.87;;;;;;;-141.28;100.00;51209.66;5112381;28;20446;-74
2022/09/04 08:26:43;;;;;;;14.87;12.03;;;;;;;-141.28;100.00;51170.38;5049193;28;20245;-76
2022/09/04 08:29:29;;;;;;;13.03;10.97;;;;;;;-141.28;100.00;51162.53;5092276;28;20202;-75
2022/09/04 08:32:12;;;;;;;11.07;9.87;;;;;;;-141.28;100.00;51150.75;5099000;28;20574;-74
2022/09/04 08:35:03;;;;;;;12.03;9.73;;;;;;;-141.28;100.00;51205.72;5105469;28;20226;-75
2022/09/04 08:37:43;;;;;;;12.03;9.37;;;;;;;-141.28;100.00;51260.69;5102437;28;20282;-78
2022/09/04 08:40:34;;;;;;;13.53;11.03;;;;;;;-141.28;100.00;51409.91;5094720;28;20219;-75
2022/09/04 08:43:24;;;;;;;17.00;10.17;;;;;;;-141.28;100.00;51492.38;5107096;28;20202;-75
2022/09/04 08:46:26;;;;;;;15.17;9.43;;;;;;;-141.28;100.00;51506.13;5113384;28;20202;-74
2022/09/04 08:49:27;;;;;;;14.80;10.47;;;;;;;-141.28;100.00;51476.66;5084618;28;20205;-75
2022/09/04 08:52:27;;;;;;;9.63;8.63;;;;;;;-141.28;100.00;51435.44;5100424;28;20235;-77
2022/09/04 08:55:34;;;;;;;12.37;7.87;;;;;;;-141.28;100.00;51614.13;5053959;28;20221;-75
2022/09/04 08:58:40;;;;;;;8.97;7.30;;;;;;;-141.28;100.00;51753.53;5111964;28;20198;-76
2022/09/04 09:01:48;;;;;;;7.87;7.07;;;;;;;-141.28;100.00;51790.84;5054097;28;20235;-74
2022/09/04 09:04:50;;;;;;;9.83;8.10;;;;;;;-141.28;100.00;51845.81;5111718;28;20224;-75
2022/09/04 09:07:53;;;;;;;10.93;7.10;;;;;;;-141.28;100.00;51999.00;5082138;28;20209;-75
2022/09/04 09:10:36;;;;;;;9.70;7.13;;;;;;;-141.28;100.00;52034.34;5068145;28;20203;-76
2022/09/04 09:13:49;;;;;;;10.00;7.20;;;;;;;-141.28;100.00;52167.88;5086813;28;20210;-76
2022/09/04 09:16:24;;;;;;;8.93;7.00;;;;;;;-141.28;100.00;52124.66;5067825;28;20228;-75
2022/09/04 09:19:10;;;;;;;10.53;6.73;;;;;;;-141.28;100.00;52140.38;5072785;28;20657;-75
2022/09/04 09:21:44;;;;;;;6.57;5.60;;;;;;;-141.28;100.00;52183.59;5065266;28;20710;-74
2022/09/04 09:25:01;;;;;;;9.73;6.93;;;;;;;-141.28;100.00;52236.63;5083672;28;20664;-75
2022/09/04 09:28:04;;;;;;;6.50;5.90;;;;;;;-141.28;100.00;52309.28;5002584;28;20209;-76
2022/09/04 09:30:49;;;;;;;8.53;6.10;;;;;;;-141.28;100.00;52321.06;5080013;28;20208;-75
2022/09/04 09:33:49;;;;;;;14.27;6.80;;;;;;;-141.28;100.00;52326.94;5080284;28;20563;-74
2022/09/04 09:36:43;;;;;;;7.90;5.60;;;;;;;-141.28;100.00;52240.53;5072391;28;20232;-77
2022/09/04 09:39:39;;;;;;;10.47;5.27;;;;;;;-141.28;100.00;52112.88;5069705;28;20196;-75
2022/09/04 09:42:26;;;;;;;8.83;5.27;;;;;;;-141.28;100.00;51947.94;5072496;28;20288;-75
2022/09/04 09:45:34;;;;;;;6.87;5.30;;;;;;;-141.28;100.00;51737.81;5072358;28;20583;-74
2022/09/04 09:48:38;;;;;;;5.80;5.20;;;;;;;-141.28;100.00;51629.81;5083084;28;20241;-74
2022/09/04 09:51:38;;;;;;;6.43;5.80;;;;;;;-141.28;100.00;51441.31;5091935;28;20574;-75
2022/09/04 09:54:47;;;;;;;7.60;4.97;;;;;;;-141.28;100.00;51360.81;5074317;28;20196;-77
2022/09/04 09:57:49;;;;;;;5.87;5.07;;;;;;;-141.28;100.00;51298.00;5089537;28;20187;-76
2022/09/04 10:00:20;;;;;;;5.33;4.80;;;;;;;-141.28;100.00;51119.34;5066844;28;20227;-75
2022/09/04 10:03:33;;;;;;;7.93;4.40;;;;;;;-141.28;100.00;51052.59;5092123;28;20233;-75
2022/09/04 10:06:32;;;;;;;5.60;4.60;;;;;;;-141.28;100.00;50813.09;5080105;28;20205;-77
2022/09/04 10:09:53;;;;;;;5.90;4.33;;;;;;;-141.28;100.00;50703.16;5110953;28;20206;-76
2022/09/04 10:12:39;;;;;;;4.80;4.40;;;;;;;-141.28;100.00;50334.13;5070008;28;20210;-76
2022/09/04 10:15:39;;;;;;;5.00;4.50;;;;;;;-141.28;100.00;50365.53;5106452;28;20235;-73
2022/09/04 10:18:44;;;;;;;5.43;4.27;;;;;;;-141.28;100.00;50345.91;5090815;28;20200;-77
2022/09/04 10:21:50;;;;;;;6.00;4.57;;;;;;;-141.28;100.00;50232.06;5096550;28;20200;-75
2022/09/04 10:24:45;;;;;;;6.27;4.70;;;;;;;-141.28;100.00;50459.75;5083730;28;20217;-76
2022/09/04 10:27:35;;;;;;;4.63;4.17;;;;;;;-141.28;100.00;50449.94;5090923;28;20210;-74
2022/09/04 10:30:10;;;;;;;5.67;4.50;;;;;;;-141.28;100.00;50177.13;5091672;28;20207;-75
2022/09/04 10:32:58;;;;;;;5.27;4.10;;;;;;;-141.28;100.00;50365.53;5080094;28;20607;-74
2022/09/04 10:35:27;;;;;;;4.80;4.40;;;;;;;-141.28;100.00;50249.75;5091711;28;20221;-75
2022/09/04 10:38:21;;;;;;;5.83;4.40;;;;;;;-141.28;100.00;50338.06;5104263;28;20199;-77
2022/09/04 10:41:13;;;;;;;4.10;3.70;;;;;;;-141.28;100.00;50131.97;5091764;28;20219;-76
2022/09/04 10:44:04;;;;;;;4.70;3.70;;;;;;;-141.28;100.00;49774.78;5090018;28;20208;-76
2022/09/04 10:46:41;;;;;;;4.27;3.77;;;;;;;-141.28;100.00;49578.56;5112083;28;20228;-77
2022/09/04 10:49:33;;;;;;;6.13;4.10;;;;;;;-141.28;100.00;49456.88;5100401;28;20210;-75
2022/09/04 10:52:35;;;;;;;4.87;3.90;;;;;;;-141.28;100.00;49427.44;5079636;28;20197;-75
2022/09/04 10:55:20;;;;;;;5.33;4.37;;;;;;;-141.28;100.00;49305.78;5085658;28;20221;-75
2022/09/04 10:58:19;;;;;;;4.70;4.07;;;;;;;-141.28;100.00;49107.63;5072992;28;20528;-76
2022/09/04 11:01:12;;;;;;;4.93;4.43;;;;;;;-141.28;100.00;49078.19;5091860;28;20697;-75
2022/09/04 11:04:03;;;;;;;4.93;4.20;;;;;;;-141.28;100.00;49101.72;5093882;28;20209;-76
2022/09/04 11:07:09;;;;;;;7.43;4.50;;;;;;;-141.28;100.00;48885.91;5078367;28;20208;-76
2022/09/04 11:10:06;;;;;;;4.73;4.13;;;;;;;-141.28;100.00;48840.78;5075965;28;20233;-76
2022/09/04 11:13:03;;;;;;;5.13;4.27;;;;;;;-141.28;100.00;48819.22;5075950;28;20203;-75
2022/09/04 11:15:49;;;;;;;6.80;4.60;;;;;;;-141.28;100.00;48795.66;5074873;28;20222;-77
2022/09/04 11:18:52;;;;;;;6.00;4.33;;;;;;;-141.28;100.00;48760.34;5077525;28;20249;-76
2022/09/04 11:21:49;;;;;;;6.20;4.40;;;;;;;-141.28;100.00;48740.72;5109621;28;20305;-76
2022/09/04 11:24:48;;;;;;;5.43;3.73;;;;;;;-141.28;100.00;48756.44;5110749;28;20202;-75
2022/09/04 11:28:12;;;;;;;4.57;4.17;;;;;;;-141.28;100.00;48725.03;5093545;28;20257;-74
2022/09/04 11:31:04;;;;;;;4.50;3.80;;;;;;;-141.28;100.00;48685.81;5033313;28;20209;-75
2022/09/04 11:34:03;;;;;;;13.03;4.03;;;;;;;-141.28;100.00;48701.50;5095127;28;20662;-78
2022/09/04 11:37:08;;;;;;;4.97;3.80;;;;;;;-141.28;100.00;48697.56;5093324;28;20227;-75
2022/09/04 11:40:18;;;;;;;6.17;4.10;;;;;;;-141.28;100.00;48717.19;5079325;28;20581;-75
2022/09/04 11:43:02;;;;;;;5.40;3.90;;;;;;;-141.28;100.00;48752.50;4988943;28;20230;-76
2022/09/04 11:45:50;;;;;;;5.63;3.83;;;;;;;-141.28;100.00;48725.03;4993063;28;20218;-74
2022/09/04 11:48:49;;;;;;;4.80;4.17;;;;;;;-141.28;100.00;48723.06;5057726;28;20290;-75
2022/09/04 11:51:35;;;;;;;4.40;4.00;;;;;;;-141.28;100.00;48705.41;5107153;28;20196;-76
2022/09/04 11:54:35;;;;;;;4.87;4.30;;;;;;;-141.28;100.00;48697.56;5098971;28;20223;-75
2022/09/04 11:57:15;;;;;;;5.27;3.93;;;;;;;-141.28;100.00;48725.03;5099428;28;20223;-76
2022/09/04 12:00:19;;;;;;;4.33;3.93;;;;;;;-141.28;100.00;48756.44;5106959;28;20227;-75
2022/09/04 12:03:26;;;;;;;4.17;3.70;;;;;;;-141.28;100.00;48748.56;5087548;28;20191;-76
2022/09/04 12:06:12;;;;;;;5.30;3.63;;;;;;;-141.28;100.00;48744.66;5079926;28;20235;-77
2022/09/04 12:08:57;;;;;;;7.77;4.20;;;;;;;-141.28;100.00;48732.88;5092693;28;20229;-75
2022/09/04 12:12:21;;;;;;;4.33;3.93;;;;;;;-141.28;100.00;48740.72;5074229;28;20206;-75
2022/09/04 12:15:30;;;;;;;4.83;3.90;;;;;;;-141.28;100.00;48736.81;5095348;28;20223;-74
2022/09/04 12:18:22;;;;;;;5.17;4.07;;;;;;;-141.28;100.00;48709.34;5064435;28;20562;-76
2022/09/04 12:21:25;;;;;;;4.50;3.73;;;;;;;-141.28;100.00;48758.38;5093931;28;20212;-77
2022/09/04 12:24:27;;;;;;;3.90;3.30;;;;;;;-141.28;100.00;48748.56;5084131;28;20199;-77